createdAt,value
2019-05-18T00:00:59.706Z,10.15
2019-05-18T00:01:59.705Z,10.03
2019-05-18T00:02:59.714Z,10.12
2019-05-18T00:03:59.681Z,9.99
2019-05-18T00:04:59.658Z,10.03
2019-05-18T00:05:59.684Z,10.04
2019-05-18T00:06:59.636Z,10.03
2019-05-18T00:07:59.625Z,9.96
2019-05-18T00:08:59.632Z,10.00
2019-05-18T00:09:59.601Z,10.06
2019-05-18T00:10:59.594Z,10.03
2019-05-18T00:11:59.594Z,10.01
2019-05-18T00:12:59.568Z,10.03
2019-05-18T00:13:59.577Z,10.01
2019-05-18T00:14:59.544Z,9.97
2019-05-18T00:15:59.536Z,10.01
2019-05-18T00:16:59.524Z,10.04
2019-05-18T00:17:59.510Z,9.94
2019-05-18T00:18:59.525Z,9.99
2019-05-18T00:19:59.487Z,10.01
2019-05-18T00:20:59.475Z,9.96
2019-05-18T00:21:59.465Z,9.96
2019-05-18T00:22:59.452Z,10.00
2019-05-18T00:23:59.439Z,10.04
2019-05-18T00:24:59.451Z,10.01
2019-05-18T00:25:59.419Z,9.88
2019-05-18T00:26:59.408Z,9.85
2019-05-18T00:27:59.397Z,9.85
2019-05-18T00:28:59.384Z,9.89
2019-05-18T00:29:59.374Z,9.86
2019-05-18T00:30:59.381Z,9.96
2019-05-18T00:31:59.349Z,9.96
2019-05-18T00:32:59.343Z,9.94
2019-05-18T00:33:59.326Z,9.86
2019-05-18T00:34:59.314Z,9.89
2019-05-18T00:35:59.327Z,9.94
2019-05-18T00:36:59.292Z,9.97
2019-05-18T00:37:59.282Z,9.86
2019-05-18T00:38:59.292Z,9.91
2019-05-18T00:39:59.316Z,9.86
2019-05-18T00:40:59.249Z,9.91
2019-05-18T00:41:59.257Z,9.88
2019-05-18T00:42:59.224Z,9.83
2019-05-18T00:43:59.211Z,9.81
2019-05-18T00:44:59.201Z,9.78
2019-05-18T00:45:59.189Z,9.82
2019-05-18T00:46:59.198Z,9.79
2019-05-18T00:47:59.169Z,9.76
2019-05-18T00:48:59.157Z,9.79
2019-05-18T00:49:59.147Z,9.76
2019-05-18T00:50:59.134Z,9.81
2019-05-18T00:51:59.142Z,9.82
2019-05-18T00:52:59.110Z,9.64
2019-05-18T00:53:59.098Z,9.63
2019-05-18T00:54:59.087Z,9.57
2019-05-18T00:55:59.075Z,9.60
2019-05-18T00:56:59.084Z,9.49
2019-05-18T00:57:59.092Z,9.60
2019-05-18T00:58:59.042Z,9.49
2019-05-18T00:59:59.029Z,9.57
2019-05-18T01:00:59.080Z,9.52
2019-05-18T01:01:59.016Z,9.50
2019-05-18T01:02:59.013Z,9.50
2019-05-18T01:03:58.983Z,9.52
2019-05-18T01:04:58.972Z,9.57
2019-05-18T01:05:58.961Z,9.60
2019-05-18T01:06:58.947Z,9.43
2019-05-18T01:07:58.961Z,9.57
2019-05-18T01:08:58.924Z,9.49
2019-05-18T01:09:58.913Z,9.52
2019-05-18T01:10:58.904Z,9.46
2019-05-18T01:11:58.896Z,9.50
2019-05-18T01:12:58.879Z,9.48
2019-05-18T01:13:58.885Z,9.43
2019-05-18T01:14:58.859Z,9.45
2019-05-18T01:15:58.844Z,9.39
2019-05-18T01:16:58.835Z,9.48
2019-05-18T01:18:02.016Z,9.53
2019-05-18T01:18:58.828Z,9.48
2019-05-18T01:19:58.812Z,9.42
2019-05-18T01:20:58.789Z,9.39
2019-05-18T01:21:58.776Z,9.48
2019-05-18T01:22:58.762Z,9.42
2019-05-18T01:23:58.771Z,9.32
2019-05-18T01:24:58.741Z,9.40
2019-05-18T01:25:58.729Z,9.28
2019-05-18T01:26:58.717Z,9.35
2019-05-18T01:27:58.707Z,9.18
2019-05-18T01:28:58.721Z,9.20
2019-05-18T01:29:58.684Z,9.25
2019-05-18T01:30:58.675Z,9.25
2019-05-18T01:31:58.660Z,9.16
2019-05-18T01:32:58.648Z,9.25
2019-05-18T01:33:58.636Z,9.25
2019-05-18T01:34:58.644Z,9.15
2019-05-18T01:35:58.615Z,9.15
2019-05-18T01:36:58.602Z,9.16
2019-05-18T01:37:58.588Z,9.25
2019-05-18T01:38:58.579Z,9.24
2019-05-18T01:39:58.594Z,9.09
2019-05-18T01:40:58.561Z,9.15
2019-05-18T01:41:58.561Z,9.09
2019-05-18T01:42:58.532Z,9.23
2019-05-18T01:43:58.520Z,9.23
2019-05-18T01:44:58.507Z,9.13
2019-05-18T01:45:58.517Z,9.12
2019-05-18T01:46:58.484Z,9.20
2019-05-18T01:48:12.723Z,9.10
2019-05-18T01:48:59.459Z,9.06
2019-05-18T01:49:58.450Z,9.06
2019-05-18T01:50:58.462Z,9.15
2019-05-18T01:51:58.447Z,9.02
2019-05-18T01:52:58.415Z,9.06
2019-05-18T01:53:58.404Z,9.12
2019-05-18T01:54:58.396Z,9.16
2019-05-18T01:55:58.385Z,9.23
2019-05-18T01:56:58.390Z,9.15
2019-05-18T01:57:58.359Z,9.13
2019-05-18T01:58:58.351Z,9.10
2019-05-18T01:59:58.338Z,9.04
2019-05-18T02:00:58.325Z,9.06
2019-05-18T02:01:58.333Z,9.02
2019-05-18T02:02:58.300Z,9.01
2019-05-18T02:03:58.291Z,8.88
2019-05-18T02:04:58.278Z,9.10
2019-05-18T02:05:58.282Z,8.99
2019-05-18T02:06:58.283Z,8.94
2019-05-18T02:07:58.244Z,8.99
2019-05-18T02:08:58.230Z,8.86
2019-05-18T02:09:58.219Z,8.88
2019-05-18T02:10:58.215Z,8.69
2019-05-18T02:11:58.197Z,8.73
2019-05-18T02:12:58.208Z,8.72
2019-05-18T02:13:58.176Z,8.72
2019-05-18T02:14:58.164Z,8.51
2019-05-18T02:15:58.154Z,8.53
2019-05-18T02:16:58.143Z,8.51
2019-05-18T02:17:58.147Z,8.55
2019-05-18T02:18:58.135Z,8.54
2019-05-18T02:19:58.105Z,8.60
2019-05-18T02:20:58.095Z,8.55
2019-05-18T02:21:58.080Z,8.50
2019-05-18T02:22:58.074Z,8.57
2019-05-18T02:23:58.078Z,8.66
2019-05-18T02:24:58.049Z,8.55
2019-05-18T02:25:58.036Z,8.55
2019-05-18T02:26:58.023Z,8.57
2019-05-18T02:27:58.017Z,8.54
2019-05-18T02:28:58.019Z,8.50
2019-05-18T02:29:57.989Z,8.42
2019-05-18T02:30:57.980Z,8.30
2019-05-18T02:31:57.965Z,8.33
2019-05-18T02:32:57.959Z,8.33
2019-05-18T02:33:57.966Z,8.26
2019-05-18T02:34:57.932Z,8.22
2019-05-18T02:35:57.919Z,8.15
2019-05-18T02:36:57.909Z,8.12
2019-05-18T02:37:57.902Z,8.12
2019-05-18T02:38:57.886Z,8.02
2019-05-18T02:39:57.891Z,8.02
2019-05-18T02:40:57.865Z,8.02
2019-05-18T02:41:57.849Z,8.04
2019-05-18T02:42:57.837Z,7.94
2019-05-18T02:43:57.831Z,8.02
2019-05-18T02:44:57.833Z,8.03
2019-05-18T02:45:57.806Z,7.84
2019-05-18T02:46:57.793Z,7.94
2019-05-18T02:47:57.840Z,7.90
2019-05-18T02:48:57.772Z,7.99
2019-05-18T02:49:57.809Z,7.94
2019-05-18T02:50:57.745Z,8.10
2019-05-18T02:51:57.738Z,8.14
2019-05-18T02:52:57.722Z,8.28
2019-05-18T02:53:57.796Z,8.21
2019-05-18T02:54:57.719Z,8.25
2019-05-18T02:55:57.689Z,8.25
2019-05-18T02:56:57.674Z,8.32
2019-05-18T02:57:57.664Z,8.39
2019-05-18T02:58:57.663Z,8.30
2019-05-18T02:59:57.666Z,8.32
2019-05-18T03:00:57.628Z,8.25
2019-05-18T03:01:57.617Z,8.14
2019-05-18T03:02:57.608Z,8.20
2019-05-18T03:03:57.596Z,8.29
2019-05-18T03:04:57.581Z,8.15
2019-05-18T03:05:57.590Z,8.12
2019-05-18T03:06:57.560Z,8.28
2019-05-18T03:07:57.552Z,8.30
2019-05-18T03:08:57.536Z,8.26
2019-05-18T03:09:57.527Z,8.29
2019-05-18T03:10:57.539Z,8.29
2019-05-18T03:11:57.504Z,8.37
2019-05-18T03:12:57.492Z,8.12
2019-05-18T03:13:57.477Z,8.33
2019-05-18T03:14:57.467Z,8.35
2019-05-18T03:15:57.454Z,8.22
2019-05-18T03:16:57.463Z,8.25
2019-05-18T03:17:57.431Z,8.26
2019-05-18T03:19:07.380Z,8.28
2019-05-18T03:19:58.407Z,8.25
2019-05-18T03:20:57.402Z,8.14
2019-05-18T03:22:00.827Z,8.04
2019-05-18T03:22:57.374Z,8.14
2019-05-18T03:23:57.429Z,8.07
2019-05-18T03:24:57.350Z,7.99
2019-05-18T03:25:57.385Z,7.97
2019-05-18T03:26:57.350Z,8.07
2019-05-18T03:27:57.315Z,8.11
2019-05-18T03:28:57.307Z,7.97
2019-05-18T03:29:57.293Z,8.21
2019-05-18T03:30:57.285Z,8.29
2019-05-18T03:31:57.315Z,8.15
2019-05-18T03:32:57.398Z,8.15
2019-05-18T03:33:57.246Z,8.22
2019-05-18T03:34:57.235Z,8.37
2019-05-18T03:35:57.229Z,8.29
2019-05-18T03:36:57.214Z,8.28
2019-05-18T03:37:57.223Z,8.30
2019-05-18T03:38:57.186Z,8.40
2019-05-18T03:39:57.175Z,8.32
2019-05-18T03:40:57.166Z,8.30
2019-05-18T03:41:57.154Z,8.26
2019-05-18T03:42:57.140Z,8.29
2019-05-18T03:43:57.151Z,8.39
2019-05-18T03:44:57.119Z,8.33
2019-05-18T03:45:57.107Z,8.33
2019-05-18T03:46:57.100Z,8.22
2019-05-18T03:47:57.087Z,8.33
2019-05-18T03:48:57.096Z,8.32
2019-05-18T03:49:57.059Z,8.25
2019-05-18T03:50:57.048Z,8.21
2019-05-18T03:51:57.037Z,8.30
2019-05-18T03:52:57.024Z,8.26
2019-05-18T03:53:57.032Z,8.25
2019-05-18T03:54:57.022Z,8.21
2019-05-18T03:55:57.162Z,8.14
2019-05-18T03:56:56.981Z,8.12
2019-05-18T03:57:56.969Z,8.11
2019-05-18T03:58:56.980Z,8.07
2019-05-18T03:59:57.009Z,8.14
2019-05-18T04:00:56.934Z,8.07
2019-05-18T04:01:56.949Z,8.10
2019-05-18T04:02:56.919Z,8.00
2019-05-18T04:03:56.920Z,8.04
2019-05-18T04:04:56.889Z,7.99
2019-05-18T04:05:56.873Z,7.96
2019-05-18T04:06:56.865Z,8.03
2019-05-18T04:07:56.849Z,7.90
2019-05-18T04:08:56.839Z,7.99
2019-05-18T04:09:56.850Z,7.96
2019-05-18T04:10:56.817Z,7.96
2019-05-18T04:11:56.804Z,7.82
2019-05-18T04:12:56.796Z,7.89
2019-05-18T04:13:56.779Z,7.90
2019-05-18T04:14:56.800Z,7.90
2019-05-18T04:15:56.774Z,7.94
2019-05-18T04:16:56.760Z,7.90
2019-05-18T04:17:56.736Z,7.87
2019-05-18T04:18:56.755Z,7.85
2019-05-18T04:19:56.715Z,7.87
2019-05-18T04:20:56.720Z,7.92
2019-05-18T04:21:56.687Z,7.89
2019-05-18T04:22:56.682Z,7.94
2019-05-18T04:23:56.666Z,7.89
2019-05-18T04:24:56.659Z,7.89
2019-05-18T04:25:56.670Z,7.92
2019-05-18T04:26:56.637Z,7.90
2019-05-18T04:27:56.666Z,8.00
2019-05-18T04:28:56.607Z,7.97
2019-05-18T04:29:56.600Z,8.20
2019-05-18T04:30:56.582Z,8.20
2019-05-18T04:31:56.615Z,8.32
2019-05-18T04:32:56.558Z,8.18
2019-05-18T04:33:56.548Z,8.44
2019-05-18T04:34:56.537Z,8.25
2019-05-18T04:35:56.527Z,8.33
2019-05-18T04:36:56.513Z,8.32
2019-05-18T04:37:56.521Z,8.32
2019-05-18T04:38:56.502Z,8.36
2019-05-18T04:39:56.483Z,8.37
2019-05-18T04:40:56.467Z,8.40
2019-05-18T04:41:56.455Z,8.35
2019-05-18T04:42:56.463Z,8.39
2019-05-18T04:43:56.434Z,8.37
2019-05-18T04:44:56.421Z,8.47
2019-05-18T04:45:56.409Z,8.48
2019-05-18T04:46:56.399Z,8.58
2019-05-18T04:47:56.404Z,8.57
2019-05-18T04:48:56.375Z,8.55
2019-05-18T04:50:05.447Z,8.69
2019-05-18T04:50:57.353Z,8.66
2019-05-18T04:51:56.344Z,8.76
2019-05-18T04:52:56.354Z,8.93
2019-05-18T04:53:56.313Z,9.02
2019-05-18T04:54:56.305Z,9.06
2019-05-18T04:55:56.293Z,9.13
2019-05-18T04:56:56.282Z,9.32
2019-05-18T04:57:56.269Z,9.46
2019-05-18T04:58:56.279Z,9.52
2019-05-18T04:59:56.249Z,9.64
2019-05-18T05:00:56.236Z,9.79
2019-05-18T05:01:56.224Z,9.85
2019-05-18T05:02:56.214Z,9.88
2019-05-18T05:03:56.223Z,9.96
2019-05-18T05:04:56.876Z,10.14
2019-05-18T05:05:56.181Z,10.10
2019-05-18T05:06:56.176Z,10.17
2019-05-18T05:07:56.161Z,10.30
2019-05-18T05:08:56.145Z,10.34
2019-05-18T05:09:56.153Z,10.42
2019-05-18T05:10:56.121Z,10.43
2019-05-18T05:11:56.110Z,10.51
2019-05-18T05:12:56.101Z,10.44
2019-05-18T05:13:56.089Z,10.53
2019-05-18T05:14:56.095Z,10.37
2019-05-18T05:15:56.073Z,10.58
2019-05-18T05:16:56.056Z,10.63
2019-05-18T05:17:56.041Z,10.76
2019-05-18T05:18:56.032Z,10.73
2019-05-18T05:19:56.041Z,10.71
2019-05-18T05:20:56.028Z,10.73
2019-05-18T05:21:55.996Z,10.86
2019-05-18T05:22:55.983Z,10.84
2019-05-18T05:23:55.973Z,10.98
2019-05-18T05:24:55.963Z,10.94
2019-05-18T05:25:55.969Z,11.14
2019-05-18T05:26:55.938Z,11.14
2019-05-18T05:27:55.926Z,11.11
2019-05-18T05:28:55.915Z,11.16
2019-05-18T05:29:55.900Z,11.21
2019-05-18T05:30:55.908Z,11.28
2019-05-18T05:31:55.876Z,11.43
2019-05-18T05:32:55.868Z,11.54
2019-05-18T05:33:55.854Z,11.65
2019-05-18T05:34:55.844Z,11.72
2019-05-18T05:35:55.852Z,11.70
2019-05-18T05:36:55.819Z,11.90
2019-05-18T05:37:55.805Z,12.02
2019-05-18T05:38:55.797Z,12.05
2019-05-18T05:39:55.784Z,12.20
2019-05-18T05:40:55.799Z,12.24
2019-05-18T05:41:55.761Z,12.38
2019-05-18T05:42:55.754Z,12.23
2019-05-18T05:43:55.739Z,12.37
2019-05-18T05:44:55.726Z,12.45
2019-05-18T05:45:55.714Z,12.54
2019-05-18T05:46:55.720Z,12.60
2019-05-18T05:47:55.692Z,12.78
2019-05-18T05:48:55.677Z,12.99
2019-05-18T05:49:55.667Z,12.93
2019-05-18T05:50:55.659Z,13.15
2019-05-18T05:51:55.673Z,13.37
2019-05-18T05:52:55.634Z,13.37
2019-05-18T05:53:55.629Z,13.51
2019-05-18T05:54:55.611Z,13.71
2019-05-18T05:55:55.601Z,13.88
2019-05-18T05:56:55.615Z,13.95
2019-05-18T05:57:55.584Z,13.99
2019-05-18T05:58:55.566Z,14.20
2019-05-18T05:59:55.555Z,14.32
2019-05-18T06:00:55.542Z,14.38
2019-05-18T06:01:55.535Z,14.31
2019-05-18T06:02:55.540Z,14.34
2019-05-18T06:03:55.508Z,14.44
2019-05-18T06:04:55.507Z,14.49
2019-05-18T06:05:55.483Z,14.62
2019-05-18T06:06:55.493Z,14.72
2019-05-18T06:07:55.483Z,14.88
2019-05-18T06:08:55.449Z,15.08
2019-05-18T06:09:55.439Z,15.17
2019-05-18T06:10:55.425Z,15.28
2019-05-18T06:11:55.422Z,15.46
2019-05-18T06:12:55.464Z,15.75
2019-05-18T06:13:55.391Z,15.82
2019-05-18T06:14:55.380Z,16.03
2019-05-18T06:15:55.373Z,16.11
2019-05-18T06:16:55.421Z,16.27
2019-05-18T06:17:55.386Z,16.27
2019-05-18T06:18:55.336Z,16.22
2019-05-18T06:19:55.321Z,16.31
2019-05-18T06:20:55.312Z,16.09
2019-05-18T06:21:55.298Z,16.06
2019-05-18T06:22:55.292Z,16.06
2019-05-18T06:23:55.301Z,16.07
2019-05-18T06:24:55.267Z,15.96
2019-05-18T06:25:55.253Z,15.84
2019-05-18T06:26:55.243Z,15.88
2019-05-18T06:27:55.232Z,16.00
2019-05-18T06:28:55.220Z,16.15
2019-05-18T06:29:55.227Z,16.18
2019-05-18T06:30:55.196Z,16.11
2019-05-18T06:31:55.189Z,16.26
2019-05-18T06:32:55.175Z,16.42
2019-05-18T06:33:55.213Z,16.52
2019-05-18T06:34:55.152Z,16.71
2019-05-18T06:35:55.140Z,16.77
2019-05-18T06:36:55.982Z,16.80
2019-05-18T06:37:55.116Z,16.78
2019-05-18T06:38:55.110Z,16.73
2019-05-18T06:39:55.116Z,16.80
2019-05-18T06:40:55.083Z,16.86
2019-05-18T06:41:55.078Z,16.96
2019-05-18T06:42:55.061Z,16.99
2019-05-18T06:43:57.974Z,17.06
2019-05-18T06:44:55.056Z,17.18
2019-05-18T06:45:55.035Z,17.28
2019-05-18T06:46:55.014Z,17.43
2019-05-18T06:47:55.006Z,17.46
2019-05-18T06:48:54.989Z,17.30
2019-05-18T06:49:55.000Z,17.51
2019-05-18T06:51:06.923Z,17.43
2019-05-18T06:51:55.957Z,17.59
2019-05-18T06:52:54.945Z,17.70
2019-05-18T06:53:54.930Z,17.89
2019-05-18T06:54:54.959Z,18.00
2019-05-18T06:55:54.907Z,18.06
2019-05-18T06:56:54.897Z,18.17
2019-05-18T06:57:56.668Z,18.29
2019-05-18T06:58:54.875Z,18.31
2019-05-18T06:59:54.911Z,18.24
2019-05-18T07:00:54.871Z,18.12
2019-05-18T07:01:54.840Z,18.13
2019-05-18T07:02:54.827Z,18.09
2019-05-18T07:03:54.819Z,18.02
2019-05-18T07:04:54.805Z,18.18
2019-05-18T07:05:54.816Z,18.33
2019-05-18T07:06:54.781Z,18.39
2019-05-18T07:07:54.773Z,18.50
2019-05-18T07:08:54.762Z,18.76
2019-05-18T07:09:54.749Z,18.83
2019-05-18T07:10:54.760Z,19.10
2019-05-18T07:11:56.249Z,19.23
2019-05-18T07:12:54.714Z,19.31
2019-05-18T07:13:54.708Z,19.40
2019-05-18T07:14:54.696Z,19.33
2019-05-18T07:15:54.680Z,19.58
2019-05-18T07:16:54.685Z,19.66
2019-05-18T07:17:54.658Z,19.61
2019-05-18T07:18:54.646Z,19.48
2019-05-18T07:19:54.635Z,19.51
2019-05-18T07:20:54.622Z,19.61
2019-05-18T07:21:54.628Z,19.65
2019-05-18T07:22:54.598Z,19.69
2019-05-18T07:23:54.612Z,19.73
2019-05-18T07:24:54.578Z,19.68
2019-05-18T07:25:54.566Z,19.80
2019-05-18T07:26:54.575Z,19.79
2019-05-18T07:27:54.539Z,19.76
2019-05-18T07:28:54.529Z,19.68
2019-05-18T07:29:54.516Z,19.68
2019-05-18T07:30:54.510Z,19.63
2019-05-18T07:31:54.516Z,19.43
2019-05-18T07:32:54.486Z,19.35
2019-05-18T07:33:54.504Z,19.36
2019-05-18T07:34:54.462Z,19.48
2019-05-18T07:35:54.454Z,19.76
2019-05-18T07:36:54.461Z,19.80
2019-05-18T07:37:54.486Z,19.63
2019-05-18T07:38:54.413Z,19.68
2019-05-18T07:39:54.402Z,19.90
2019-05-18T07:40:54.408Z,20.54
2019-05-18T07:41:54.413Z,21.59
2019-05-18T07:42:54.370Z,22.75
2019-05-18T07:43:54.358Z,22.90
2019-05-18T07:44:54.348Z,23.55
2019-05-18T07:45:54.333Z,24.02
2019-05-18T07:46:54.324Z,23.98
2019-05-18T07:47:54.329Z,24.71
2019-05-18T07:48:54.306Z,25.31
2019-05-18T07:49:54.291Z,26.36
2019-05-18T07:50:54.278Z,27.26
2019-05-18T07:51:54.266Z,28.17
2019-05-18T07:52:54.275Z,28.54
2019-05-18T07:53:54.243Z,29.34
2019-05-18T07:54:54.235Z,29.38
2019-05-18T07:55:54.230Z,28.81
2019-05-18T07:56:54.212Z,28.47
2019-05-18T07:57:54.224Z,28.19
2019-05-18T07:58:54.195Z,27.80
2019-05-18T07:59:54.180Z,27.46
2019-05-18T08:00:54.168Z,26.95
2019-05-18T08:01:54.158Z,26.58
2019-05-18T08:02:54.167Z,26.22
2019-05-18T08:03:54.138Z,25.43
2019-05-18T08:04:54.122Z,24.85
2019-05-18T08:05:54.114Z,24.16
2019-05-18T08:06:54.100Z,23.40
2019-05-18T08:07:54.130Z,23.07
2019-05-18T08:08:54.081Z,22.83
2019-05-18T08:09:54.066Z,22.56
2019-05-18T08:10:54.059Z,22.31
2019-05-18T08:11:54.048Z,21.97
2019-05-18T08:12:54.036Z,21.88
2019-05-18T08:13:54.047Z,21.76
2019-05-18T08:14:54.012Z,21.54
2019-05-18T08:15:54.004Z,21.30
2019-05-18T08:16:53.990Z,21.17
2019-05-18T08:17:53.979Z,21.16
2019-05-18T08:18:53.966Z,21.20
2019-05-18T08:19:53.972Z,21.20
2019-05-18T08:20:53.949Z,21.27
2019-05-18T08:21:53.931Z,21.20
2019-05-18T08:22:53.926Z,21.29
2019-05-18T08:23:53.909Z,21.23
2019-05-18T08:24:53.915Z,21.21
2019-05-18T08:25:53.890Z,21.35
2019-05-18T08:26:53.871Z,21.42
2019-05-18T08:27:53.860Z,21.45
2019-05-18T08:28:53.851Z,21.59
2019-05-18T08:29:53.857Z,21.41
2019-05-18T08:30:53.828Z,21.27
2019-05-18T08:31:53.816Z,21.51
2019-05-18T08:32:53.835Z,21.36
2019-05-18T08:33:53.791Z,21.48
2019-05-18T08:34:53.823Z,21.34
2019-05-18T08:35:53.769Z,21.27
2019-05-18T08:36:53.757Z,21.16
2019-05-18T08:37:53.745Z,21.29
2019-05-18T08:38:53.742Z,21.35
2019-05-18T08:39:53.725Z,21.27
2019-05-18T08:40:53.739Z,21.29
2019-05-18T08:41:53.702Z,21.24
2019-05-18T08:42:53.693Z,21.08
2019-05-18T08:43:53.683Z,21.16
2019-05-18T08:44:53.675Z,21.13
2019-05-18T08:45:53.660Z,20.98
2019-05-18T08:46:53.668Z,20.86
2019-05-18T08:47:53.636Z,21.06
2019-05-18T08:48:53.625Z,21.14
2019-05-18T08:49:53.621Z,21.38
2019-05-18T08:50:53.611Z,21.38
2019-05-18T08:52:07.501Z,21.44
2019-05-18T08:52:54.578Z,21.53
2019-05-18T08:53:53.572Z,21.75
2019-05-18T08:54:53.557Z,21.78
2019-05-18T08:55:53.546Z,22.04
2019-05-18T08:56:53.559Z,22.31
2019-05-18T08:57:53.523Z,22.68
2019-05-18T08:58:53.512Z,22.34
2019-05-18T08:59:53.504Z,22.52
2019-05-18T09:00:53.493Z,22.29
2019-05-18T09:01:53.501Z,22.32
2019-05-18T09:02:53.464Z,22.44
2019-05-18T09:03:53.453Z,22.64
2019-05-18T09:04:53.439Z,22.62
2019-05-18T09:05:53.431Z,22.54
2019-05-18T09:06:53.421Z,22.78
2019-05-18T09:07:53.426Z,23.02
2019-05-18T09:08:53.393Z,23.46
2019-05-18T09:09:53.382Z,23.82
2019-05-18T09:10:53.370Z,24.35
2019-05-18T09:11:53.358Z,24.59
2019-05-18T09:12:53.369Z,25.00
2019-05-18T09:13:53.338Z,26.31
2019-05-18T09:14:53.326Z,26.47
2019-05-18T09:15:53.314Z,26.84
2019-05-18T09:16:53.304Z,27.11
2019-05-18T09:17:53.317Z,27.26
2019-05-18T09:18:53.286Z,27.43
2019-05-18T09:19:53.270Z,27.42
2019-05-18T09:20:53.261Z,27.48
2019-05-18T09:21:53.248Z,27.54
2019-05-18T09:22:53.238Z,27.64
2019-05-18T09:23:53.246Z,28.10
2019-05-18T09:24:53.215Z,28.13
2019-05-18T09:25:53.203Z,27.92
2019-05-18T09:26:53.199Z,27.82
2019-05-18T09:27:53.183Z,27.73
2019-05-18T09:28:53.191Z,27.57
2019-05-18T09:29:53.161Z,27.57
2019-05-18T09:30:53.151Z,27.46
2019-05-18T09:31:53.139Z,27.62
2019-05-18T09:32:53.125Z,28.04
2019-05-18T09:33:53.141Z,28.07
2019-05-18T09:34:53.106Z,27.80
2019-05-18T09:35:53.095Z,27.67
2019-05-18T09:36:53.089Z,27.33
2019-05-18T09:37:53.071Z,27.02
2019-05-18T09:38:53.062Z,26.84
2019-05-18T09:39:53.071Z,26.69
2019-05-18T09:40:53.040Z,26.68
2019-05-18T09:41:53.026Z,26.27
2019-05-18T09:42:53.020Z,25.84
2019-05-18T09:43:53.008Z,25.71
2019-05-18T09:44:53.011Z,25.68
2019-05-18T09:45:52.985Z,25.53
2019-05-18T09:46:52.972Z,25.56
2019-05-18T09:47:52.961Z,25.71
2019-05-18T09:48:52.953Z,25.64
2019-05-18T09:49:52.961Z,25.61
2019-05-18T09:50:52.927Z,25.52
2019-05-18T09:51:52.915Z,25.46
2019-05-18T09:52:52.911Z,25.56
2019-05-18T09:53:52.895Z,25.68
2019-05-18T09:54:52.882Z,25.65
2019-05-18T09:55:52.889Z,25.89
2019-05-18T09:56:52.859Z,25.83
2019-05-18T09:57:52.848Z,25.83
2019-05-18T09:58:52.835Z,26.02
2019-05-18T09:59:52.827Z,26.62
2019-05-18T10:00:52.839Z,26.74
2019-05-18T10:01:52.804Z,26.76
2019-05-18T10:02:52.792Z,26.73
2019-05-18T10:03:52.794Z,26.57
2019-05-18T10:04:52.770Z,26.36
2019-05-18T10:05:52.776Z,26.44
2019-05-18T10:06:52.750Z,26.43
2019-05-18T10:07:52.736Z,26.81
2019-05-18T10:08:52.724Z,26.96
2019-05-18T10:09:52.714Z,27.54
2019-05-18T10:10:52.726Z,28.59
2019-05-18T10:11:52.692Z,29.89
2019-05-18T10:12:52.680Z,30.59
2019-05-18T10:13:52.671Z,31.43
2019-05-18T10:14:52.658Z,31.96
2019-05-18T10:15:52.655Z,32.48
2019-05-18T10:16:52.658Z,32.79
2019-05-18T10:17:52.625Z,32.86
2019-05-18T10:18:52.628Z,32.64
2019-05-18T10:19:52.608Z,32.43
2019-05-18T10:20:52.598Z,32.32
2019-05-18T10:21:52.612Z,32.36
2019-05-18T10:22:59.353Z,31.13
2019-05-18T10:23:53.575Z,30.47
2019-05-18T10:24:52.554Z,30.56
2019-05-18T10:25:52.545Z,30.43
2019-05-18T10:26:52.560Z,31.21
2019-05-18T10:27:52.525Z,31.77
2019-05-18T10:28:52.510Z,32.14
2019-05-18T10:29:52.500Z,31.70
2019-05-18T10:30:52.493Z,31.79
2019-05-18T10:31:52.479Z,31.67
2019-05-18T10:32:52.487Z,31.31
2019-05-18T10:33:52.461Z,30.94
2019-05-18T10:34:52.449Z,30.47
2019-05-18T10:35:52.456Z,30.24
2019-05-18T10:36:52.431Z,31.28
2019-05-18T10:37:52.434Z,31.11
2019-05-18T10:38:52.408Z,30.80
2019-05-18T10:39:52.396Z,30.69
2019-05-18T10:40:52.385Z,30.76
2019-05-18T10:41:52.375Z,30.59
2019-05-18T10:42:52.385Z,30.46
2019-05-18T10:43:52.353Z,30.18
2019-05-18T10:44:52.340Z,29.97
2019-05-18T10:45:52.332Z,29.84
2019-05-18T10:46:52.321Z,29.89
2019-05-18T10:47:52.335Z,30.19
2019-05-18T10:48:52.298Z,30.29
2019-05-18T10:49:52.290Z,30.23
2019-05-18T10:50:52.277Z,30.12
2019-05-18T10:51:52.266Z,30.61
2019-05-18T10:52:52.255Z,31.01
2019-05-18T10:53:52.272Z,30.81
2019-05-18T10:54:52.235Z,30.59
2019-05-18T10:55:52.234Z,30.21
2019-05-18T10:56:52.216Z,30.59
2019-05-18T10:57:52.210Z,30.52
2019-05-18T10:58:52.210Z,30.18
2019-05-18T10:59:52.181Z,29.87
2019-05-18T11:00:52.171Z,30.33
2019-05-18T11:01:52.160Z,30.68
2019-05-18T11:02:52.147Z,30.91
2019-05-18T11:03:52.159Z,31.17
2019-05-18T11:04:52.128Z,31.77
2019-05-18T11:05:52.116Z,32.05
2019-05-18T11:06:52.121Z,31.92
2019-05-18T11:07:52.097Z,32.21
2019-05-18T11:08:52.086Z,32.88
2019-05-18T11:09:52.095Z,33.85
2019-05-18T11:10:52.066Z,33.76
2019-05-18T11:11:52.054Z,33.41
2019-05-18T11:12:52.042Z,33.48
2019-05-18T11:13:52.041Z,33.95
2019-05-18T11:14:52.043Z,34.56
2019-05-18T11:15:52.011Z,35.29
2019-05-18T11:16:52.003Z,35.54
2019-05-18T11:17:51.989Z,35.85
2019-05-18T11:18:51.981Z,36.03
2019-05-18T11:19:51.992Z,36.38
2019-05-18T11:20:51.961Z,36.64
2019-05-18T11:21:51.951Z,36.85
2019-05-18T11:22:51.970Z,36.21
2019-05-18T11:23:51.936Z,36.24
2019-05-18T11:24:51.945Z,36.52
2019-05-18T11:25:51.914Z,36.67
2019-05-18T11:26:51.901Z,36.54
2019-05-18T11:27:51.890Z,37.10
2019-05-18T11:28:51.881Z,36.75
2019-05-18T11:29:51.871Z,35.67
2019-05-18T11:30:51.889Z,34.14
2019-05-18T11:31:51.854Z,32.89
2019-05-18T11:32:51.841Z,32.74
2019-05-18T11:33:51.833Z,33.20
2019-05-18T11:34:51.826Z,34.05
2019-05-18T11:35:51.836Z,34.44
2019-05-18T11:36:51.830Z,35.07
2019-05-18T11:37:51.792Z,35.86
2019-05-18T11:38:51.787Z,36.35
2019-05-18T11:39:51.773Z,36.68
2019-05-18T11:40:51.788Z,36.38
2019-05-18T11:41:51.755Z,36.43
2019-05-18T11:42:51.803Z,36.43
2019-05-18T11:43:51.739Z,36.23
2019-05-18T11:44:51.725Z,36.35
2019-05-18T11:45:51.739Z,36.30
2019-05-18T11:46:51.708Z,35.93
2019-05-18T11:47:51.695Z,35.67
2019-05-18T11:48:51.685Z,36.01
2019-05-18T11:49:51.699Z,36.43
2019-05-18T11:50:51.665Z,36.64
2019-05-18T11:51:51.655Z,36.95
2019-05-18T11:52:51.651Z,37.24
2019-05-18T11:53:58.222Z,37.31
2019-05-18T11:54:52.648Z,37.12
2019-05-18T11:55:51.622Z,37.43
2019-05-18T11:56:51.609Z,37.07
2019-05-18T11:57:51.597Z,36.33
2019-05-18T11:58:51.585Z,35.33
2019-05-18T11:59:51.574Z,34.50
2019-05-18T12:00:51.587Z,34.80
2019-05-18T12:01:51.558Z,35.29
2019-05-18T12:02:51.546Z,35.70
2019-05-18T12:03:51.588Z,36.15
2019-05-18T12:04:51.526Z,36.52
2019-05-18T12:05:51.534Z,36.35
2019-05-18T12:06:51.513Z,35.86
2019-05-18T12:07:51.500Z,35.86
2019-05-18T12:08:51.489Z,36.30
2019-05-18T12:09:51.475Z,36.75
2019-05-18T12:10:52.281Z,36.49
2019-05-18T12:11:51.459Z,35.85
2019-05-18T12:12:51.445Z,34.95
2019-05-18T12:13:51.435Z,34.16
2019-05-18T12:14:51.422Z,34.11
2019-05-18T12:15:51.424Z,33.87
2019-05-18T12:16:51.423Z,34.04
2019-05-18T12:17:51.393Z,33.42
2019-05-18T12:18:51.384Z,33.79
2019-05-18T12:19:51.374Z,33.87
2019-05-18T12:20:51.373Z,33.68
2019-05-18T12:21:51.373Z,33.36
2019-05-18T12:22:51.346Z,33.43
2019-05-18T12:23:51.334Z,33.64
2019-05-18T12:24:51.331Z,33.97
2019-05-18T12:25:51.313Z,34.51
2019-05-18T12:26:51.321Z,35.32
2019-05-18T12:27:51.312Z,35.93
2019-05-18T12:28:51.284Z,36.39
2019-05-18T12:29:51.273Z,36.58
2019-05-18T12:30:51.264Z,36.86
2019-05-18T12:31:51.277Z,36.79
2019-05-18T12:32:51.244Z,37.13
2019-05-18T12:33:51.230Z,37.33
2019-05-18T12:34:51.221Z,37.70
2019-05-18T12:35:51.212Z,38.22
2019-05-18T12:36:51.204Z,37.89
2019-05-18T12:37:51.210Z,37.16
2019-05-18T12:38:51.189Z,36.14
2019-05-18T12:39:51.171Z,35.48
2019-05-18T12:40:51.164Z,35.01
2019-05-18T12:41:51.148Z,34.36
2019-05-18T12:42:51.165Z,33.90
2019-05-18T12:43:51.129Z,33.29
2019-05-18T12:44:51.120Z,32.74
2019-05-18T12:45:51.111Z,32.62
2019-05-18T12:46:51.158Z,32.49
2019-05-18T12:47:51.087Z,32.73
2019-05-18T12:48:51.095Z,32.61
2019-05-18T12:49:51.067Z,32.47
2019-05-18T12:50:51.056Z,32.54
2019-05-18T12:51:51.044Z,32.64
2019-05-18T12:52:51.035Z,32.58
2019-05-18T12:53:51.048Z,32.91
2019-05-18T12:54:51.014Z,32.62
2019-05-18T12:55:51.007Z,32.21
2019-05-18T12:56:51.007Z,31.75
2019-05-18T12:57:50.983Z,31.36
2019-05-18T12:58:50.970Z,30.89
2019-05-18T12:59:50.980Z,30.78
2019-05-18T13:00:50.948Z,30.69
2019-05-18T13:01:50.945Z,30.45